Time;durP1;ratioP1;P1;durP2;ratioP2;P2;SDS_P1;SDS_P2;PMS_P1;PMS_P2;Temp;Humidity;BMP_temperature;BMP_pressure;BME280_temperature;BME280_humidity;BME280_pressure;Samples;Min_cycle;Max_cycle;Signal;HPM_P1;HPM_P2
2023/10/23 00:00:52;;;;;;;15.07;13.60;;;22.60;96.00;;;;;;5021733;28;20477;-62
2023/10/23 00:03:18;;;;;;;16.07;14.33;;;22.70;96.10;;;;;;5023422;28;20512;-61
2023/10/23 00:05:45;;;;;;;17.50;15.83;;;22.60;96.00;;;;;;5022686;28;20564;-62
2023/10/23 00:08:12;;;;;;;14.63;13.23;;;22.60;96.00;;;;;;5020122;28;20473;-59
2023/10/23 00:10:41;;;;;;;15.50;14.20;;;22.60;96.10;;;;;;5015621;28;20482;-62
2023/10/23 00:13:07;;;;;;;15.67;14.27;;;22.60;96.10;;;;;;5012333;28;20442;-62
2023/10/23 00:15:36;;;;;;;16.67;15.33;;;22.60;96.10;;;;;;5019872;28;20500;-62
2023/10/23 00:18:03;;;;;;;14.50;13.30;;;22.60;96.10;;;;;;5023013;28;20473;-61
2023/10/23 00:20:29;;;;;;;14.70;13.20;;;22.60;96.10;;;;;;5021384;28;20485;-62
2023/10/23 00:22:56;;;;;;;14.97;13.53;;;22.60;96.20;;;;;;5022012;28;20900;-62
2023/10/23 00:25:23;;;;;;;14.90;13.20;;;22.50;96.10;;;;;;5023205;28;20582;-61
2023/10/23 00:27:50;;;;;;;15.10;14.03;;;22.60;96.10;;;;;;5021890;28;20511;-61
2023/10/23 00:30:17;;;;;;;14.93;13.57;;;22.50;96.10;;;;;;5018235;28;20488;-61
2023/10/23 00:32:45;;;;;;;13.20;12.10;;;22.60;96.10;;;;;;5020309;28;20470;-62
2023/10/23 00:35:12;;;;;;;15.07;13.70;;;22.50;96.10;;;;;;5023102;28;20497;-62
2023/10/23 00:37:39;;;;;;;15.67;14.47;;;22.50;96.20;;;;;;5023244;28;20445;-62
2023/10/23 00:40:07;;;;;;;13.70;12.50;;;22.50;96.20;;;;;;5011675;28;20478;-61
2023/10/23 00:42:34;;;;;;;14.37;12.83;;;22.50;96.30;;;;;;5019391;28;20481;-62
2023/10/23 00:45:01;;;;;;;14.67;13.43;;;22.50;96.30;;;;;;5020139;28;20503;-62
2023/10/23 00:47:28;;;;;;;13.90;12.67;;;22.50;96.30;;;;;;5019737;28;20963;-63
2023/10/23 00:49:57;;;;;;;12.43;11.57;;;22.50;96.30;;;;;;5020833;28;20508;-59
2023/10/23 00:52:24;;;;;;;14.17;12.97;;;22.50;96.30;;;;;;5023184;28;20492;-59
2023/10/23 00:54:53;;;;;;;13.20;12.00;;;22.50;96.20;;;;;;5021465;28;20467;-61
2023/10/23 00:57:20;;;;;;;13.63;12.27;;;22.50;96.30;;;;;;5019760;28;20478;-62
2023/10/23 00:59:48;;;;;;;12.40;11.50;;;22.40;96.30;;;;;;5019934;28;20481;-62
2023/10/23 01:02:15;;;;;;;12.17;11.17;;;22.40;96.30;;;;;;5022801;28;20497;-62
2023/10/23 01:04:43;;;;;;;12.27;11.47;;;22.40;96.30;;;;;;5022755;28;20577;-61
2023/10/23 01:07:11;;;;;;;14.20;13.00;;;22.40;96.40;;;;;;5019556;28;20478;-62
2023/10/23 01:09:38;;;;;;;12.03;11.13;;;22.40;96.40;;;;;;5021183;28;20474;-62
2023/10/23 01:12:06;;;;;;;11.87;10.87;;;22.40;96.30;;;;;;5025595;28;20956;-62
2023/10/23 01:14:33;;;;;;;11.50;10.60;;;22.40;96.30;;;;;;5026542;28;20500;-61
2023/10/23 01:17:00;;;;;;;12.20;11.10;;;22.40;96.40;;;;;;5024069;28;20472;-61
2023/10/23 01:19:27;;;;;;;12.13;11.20;;;22.30;96.40;;;;;;5023328;28;20473;-62
2023/10/23 01:21:53;;;;;;;12.03;11.10;;;22.40;96.40;;;;;;5023717;28;20485;-60
2023/10/23 01:24:24;;;;;;;11.33;10.63;;;22.30;96.30;;;;;;5026539;28;20489;-62
2023/10/23 01:26:52;;;;;;;11.97;11.03;;;22.40;96.30;;;;;;5025163;28;20473;-63
2023/10/23 01:29:19;;;;;;;12.00;11.10;;;22.40;96.30;;;;;;5023044;28;20441;-63
2023/10/23 01:31:46;;;;;;;11.20;10.40;;;22.30;96.30;;;;;;5022508;28;20980;-62
2023/10/23 01:34:13;;;;;;;12.00;10.97;;;22.30;96.30;;;;;;5026094;28;20945;-62
2023/10/23 01:36:40;;;;;;;11.20;10.47;;;22.30;96.30;;;;;;5026502;28;20473;-61
2023/10/23 01:39:07;;;;;;;10.80;10.10;;;22.30;96.20;;;;;;5023035;28;20474;-62
2023/10/23 01:41:34;;;;;;;11.70;10.03;;;22.30;96.10;;;;;;5022368;28;20474;-63
2023/10/23 01:44:02;;;;;;;12.60;11.40;;;22.30;96.10;;;;;;5024424;28;20482;-63
2023/10/23 01:46:29;;;;;;;11.30;10.47;;;22.30;96.10;;;;;;5025913;28;20500;-62
2023/10/23 01:48:56;;;;;;;10.90;10.20;;;22.30;96.10;;;;;;5024226;28;20473;-62
2023/10/23 01:51:23;;;;;;;9.80;9.30;;;22.30;96.10;;;;;;5022555;28;20501;-63
2023/10/23 01:53:49;;;;;;;10.53;9.87;;;22.30;96.10;;;;;;5024523;28;20474;-61
2023/10/23 01:56:16;;;;;;;10.13;9.43;;;22.30;96.10;;;;;;5026075;28;20492;-62
2023/10/23 01:58:43;;;;;;;9.97;9.10;;;22.30;96.00;;;;;;5023194;28;20540;-63
2023/10/23 02:01:21;;;;;;;9.47;8.87;;;22.30;96.00;;;;;;5014260;28;20469;-62
2023/10/23 02:03:48;;;;;;;10.07;9.43;;;22.30;96.00;;;;;;5028933;28;20480;-62
2023/10/23 02:06:15;;;;;;;10.37;9.87;;;22.30;96.00;;;;;;5020031;28;20504;-62
2023/10/23 02:08:41;;;;;;;10.97;10.17;;;22.20;96.00;;;;;;5021702;28;20473;-60
2023/10/23 02:11:09;;;;;;;10.70;9.73;;;22.20;95.90;;;;;;5023327;28;20481;-62
2023/10/23 02:13:36;;;;;;;11.13;10.00;;;22.20;95.90;;;;;;5022168;28;20434;-63
2023/10/23 02:16:03;;;;;;;11.50;10.50;;;22.20;96.00;;;;;;5026971;28;20992;-62
2023/10/23 02:18:31;;;;;;;10.37;9.70;;;22.20;96.00;;;;;;5021925;28;20488;-62
2023/10/23 02:20:58;;;;;;;10.60;10.00;;;22.20;96.00;;;;;;5023307;28;20474;-61
2023/10/23 02:23:25;;;;;;;9.90;9.50;;;22.20;95.90;;;;;;5019724;28;20529;-62
2023/10/23 02:25:52;;;;;;;10.57;9.80;;;22.20;95.90;;;;;;5022284;28;20839;-61
2023/10/23 02:28:18;;;;;;;10.47;9.70;;;22.20;95.90;;;;;;5021673;28;20481;-63
2023/10/23 02:30:45;;;;;;;8.97;8.47;;;22.20;95.90;;;;;;5021905;28;20478;-62
2023/10/23 02:33:12;;;;;;;10.67;10.00;;;22.20;95.80;;;;;;5025215;28;20471;-62
2023/10/23 02:35:40;;;;;;;10.03;9.30;;;22.20;95.80;;;;;;5024890;28;20492;-63
2023/10/23 02:38:07;;;;;;;9.20;8.70;;;22.10;95.80;;;;;;5010601;28;20477;-62
2023/10/23 02:40:34;;;;;;;10.10;9.30;;;22.10;95.80;;;;;;5021612;28;20484;-63
2023/10/23 02:43:01;;;;;;;9.63;8.83;;;22.10;95.80;;;;;;5023695;28;20523;-62
2023/10/23 02:45:28;;;;;;;10.63;9.93;;;22.10;95.80;;;;;;5024840;28;20495;-63
2023/10/23 02:47:55;;;;;;;9.97;9.47;;;22.10;95.80;;;;;;5023177;28;20468;-63
2023/10/23 02:50:22;;;;;;;9.13;8.70;;;22.10;95.80;;;;;;5021529;28;20497;-63
2023/10/23 02:52:51;;;;;;;9.37;8.87;;;22.10;95.80;;;;;;5021631;28;20474;-63
2023/10/23 02:55:18;;;;;;;9.30;8.50;;;22.10;95.70;;;;;;5024747;28;20488;-63
2023/10/23 02:57:45;;;;;;;8.63;8.13;;;22.10;95.70;;;;;;5024202;28;20481;-63
2023/10/23 03:00:13;;;;;;;8.73;8.23;;;22.10;95.70;;;;;;5024726;28;20875;-63
2023/10/23 03:02:43;;;;;;;9.80;9.17;;;22.10;95.70;;;;;;5023132;28;20514;-63
2023/10/23 03:05:11;;;;;;;10.53;10.03;;;22.10;95.70;;;;;;5024453;28;20487;-63
2023/10/23 03:07:38;;;;;;;9.60;9.20;;;22.10;95.70;;;;;;5024142;28;20457;-63
2023/10/23 03:10:07;;;;;;;10.67;10.13;;;22.10;95.70;;;;;;5021981;28;20877;-63
2023/10/23 03:12:35;;;;;;;9.40;9.00;;;22.10;96.00;;;;;;5020925;28;20478;-63
2023/10/23 03:15:03;;;;;;;8.67;8.27;;;22.10;95.60;;;;;;5022780;28;20908;-63
2023/10/23 03:17:31;;;;;;;9.77;9.27;;;22.10;95.60;;;;;;5024481;28;20491;-63
2023/10/23 03:19:58;;;;;;;8.70;8.13;;;22.10;95.60;;;;;;5016367;28;20446;-63
2023/10/23 03:22:24;;;;;;;9.37;8.87;;;22.10;95.60;;;;;;5023269;28;20957;-63
2023/10/23 03:24:51;;;;;;;9.63;9.00;;;22.10;95.60;;;;;;5021101;28;20901;-63
2023/10/23 03:27:19;;;;;;;9.43;8.83;;;22.10;95.60;;;;;;5024334;28;20853;-62
2023/10/23 03:29:46;;;;;;;9.17;8.73;;;22.10;95.60;;;;;;5024099;28;20476;-63
2023/10/23 03:32:13;;;;;;;8.47;7.97;;;22.10;95.60;;;;;;5019351;28;20485;-63
2023/10/23 03:34:40;;;;;;;8.03;7.63;;;22.10;95.60;;;;;;5020516;28;20462;-63
2023/10/23 03:37:07;;;;;;;8.50;8.20;;;22.10;95.60;;;;;;5022986;28;20470;-63
2023/10/23 03:39:34;;;;;;;8.80;8.37;;;22.10;95.60;;;;;;5023963;28;20542;-63
2023/10/23 03:42:01;;;;;;;9.20;8.80;;;22.10;95.50;;;;;;5021977;28;20473;-63
2023/10/23 03:44:29;;;;;;;8.30;7.90;;;22.10;95.50;;;;;;5019570;28;21032;-63
2023/10/23 03:46:56;;;;;;;9.00;8.70;;;22.10;95.50;;;;;;5021402;28;20466;-62
2023/10/23 03:49:23;;;;;;;9.37;8.97;;;22.10;95.40;;;;;;5023807;28;20524;-62
2023/10/23 03:51:50;;;;;;;8.57;8.17;;;22.10;95.40;;;;;;5023447;28;20797;-63
2023/10/23 03:54:17;;;;;;;9.57;9.17;;;22.10;95.30;;;;;;5019547;28;20947;-62
2023/10/23 03:56:44;;;;;;;10.10;9.63;;;22.10;95.30;;;;;;5016652;28;20478;-62
2023/10/23 03:59:11;;;;;;;9.20;8.83;;;22.10;95.30;;;;;;5023172;28;20499;-63
2023/10/23 04:01:39;;;;;;;8.70;8.40;;;22.00;95.20;;;;;;5023686;28;20468;-63
2023/10/23 04:04:07;;;;;;;9.10;8.80;;;22.00;95.30;;;;;;5021005;28;20516;-63
2023/10/23 04:06:34;;;;;;;9.27;8.97;;;22.00;95.20;;;;;;5017246;28;20465;-63
2023/10/23 04:09:00;;;;;;;9.30;8.90;;;22.00;95.20;;;;;;5019793;28;20475;-63
2023/10/23 04:11:27;;;;;;;9.70;9.20;;;22.00;95.20;;;;;;5023451;28;20949;-64
2023/10/23 04:13:54;;;;;;;9.53;9.20;;;22.00;95.20;;;;;;5022541;28;20476;-63
2023/10/23 04:16:21;;;;;;;10.30;9.90;;;22.00;95.20;;;;;;5019870;28;20497;-63
2023/10/23 04:18:49;;;;;;;9.40;9.10;;;22.00;95.10;;;;;;5019318;28;20490;-63
2023/10/23 04:21:17;;;;;;;9.40;8.90;;;22.00;95.10;;;;;;5020082;28;20856;-64
2023/10/23 04:23:44;;;;;;;8.93;8.63;;;22.00;95.10;;;;;;5019853;28;21003;-63
2023/10/23 04:26:11;;;;;;;9.70;9.40;;;22.00;95.10;;;;;;5022590;28;20492;-64
2023/10/23 04:28:38;;;;;;;9.60;9.30;;;22.00;95.10;;;;;;5023483;28;20488;-63
2023/10/23 04:31:05;;;;;;;10.10;9.73;;;22.00;95.10;;;;;;5017591;28;20490;-63
2023/10/23 04:33:31;;;;;;;9.33;9.03;;;22.00;95.00;;;;;;5023271;28;21049;-63
2023/10/23 04:36:00;;;;;;;9.20;9.00;;;22.00;95.00;;;;;;5022049;28;20492;-63
2023/10/23 04:38:28;;;;;;;8.87;8.57;;;22.00;95.00;;;;;;5019777;28;20477;-69
2023/10/23 04:40:58;;;;;;;9.33;8.93;;;22.00;96.10;;;;;;5019876;28;20457;-69
2023/10/23 04:43:27;;;;;;;9.73;9.30;;;22.20;97.50;;;;;;5020913;28;20469;-69
2023/10/23 04:45:57;;;;;;;9.63;9.30;;;22.20;96.50;;;;;;5024052;28;21085;-68
2023/10/23 04:48:27;;;;;;;9.00;8.70;;;22.20;95.70;;;;;;5021594;28;20956;-70
2023/10/23 04:51:00;;;;;;;10.27;9.90;;;22.20;95.40;;;;;;5024582;28;20511;-68
2023/10/23 04:53:27;;;;;;;10.10;9.70;;;22.20;95.50;;;;;;5027794;28;20441;-67
2023/10/23 04:55:54;;;;;;;10.73;10.33;;;22.30;95.20;;;;;;5027163;28;20503;-66
2023/10/23 04:58:21;;;;;;;9.93;9.53;;;22.30;95.10;;;;;;5020382;28;20515;-68
2023/10/23 05:00:48;;;;;;;9.17;8.87;;;22.40;95.40;;;;;;5024927;28;20461;-68
2023/10/23 05:03:18;;;;;;;9.73;9.23;;;22.40;95.40;;;;;;5022041;28;20505;-68
2023/10/23 05:05:52;;;;;;;9.00;8.70;;;22.40;95.40;;;;;;5022059;28;21003;-68
2023/10/23 05:08:23;;;;;;;9.07;8.77;;;22.50;95.50;;;;;;5016345;28;20457;-68
2023/10/23 05:11:10;;;;;;;9.60;9.20;;;22.50;95.20;;;;;;5022770;28;21011;-68
2023/10/23 05:13:38;;;;;;;9.10;8.70;;;22.50;95.40;;;;;;5016727;28;20450;-68
2023/10/23 05:16:12;;;;;;;9.50;9.20;;;22.50;95.30;;;;;;5025363;28;20497;-69
2023/10/23 05:18:43;;;;;;;8.77;8.57;;;22.50;96.00;;;;;;5027156;28;20481;-67
2023/10/23 05:21:13;;;;;;;8.77;8.47;;;22.50;95.10;;;;;;5023664;28;20940;-68
2023/10/23 05:23:42;;;;;;;8.50;8.20;;;22.50;95.00;;;;;;5024332;28;20509;-68
2023/10/23 05:26:11;;;;;;;9.50;9.07;;;22.60;95.60;;;;;;5025521;28;20543;-67
2023/10/23 05:28:44;;;;;;;9.13;8.83;;;22.60;95.20;;;;;;5027389;28;20449;-69
2023/10/23 05:31:20;;;;;;;9.20;8.80;;;22.60;95.50;;;;;;5024629;28;20467;-68
2023/10/23 05:33:51;;;;;;;8.90;8.60;;;22.60;95.20;;;;;;5022071;28;20504;-68
2023/10/23 05:36:19;;;;;;;9.20;8.70;;;22.70;95.40;;;;;;5016001;28;20465;-67
2023/10/23 05:38:52;;;;;;;8.90;8.50;;;22.70;96.20;;;;;;5019180;28;20484;-68
2023/10/23 05:41:23;;;;;;;8.63;8.30;;;22.70;95.40;;;;;;5026608;28;20449;-68
2023/10/23 05:43:50;;;;;;;9.10;8.80;;;22.70;95.50;;;;;;5026227;28;20479;-68
2023/10/23 05:46:26;;;;;;;8.73;8.53;;;22.70;96.00;;;;;;5022657;28;21044;-68
2023/10/23 05:48:57;;;;;;;9.57;9.27;;;22.70;95.20;;;;;;5026005;28;20456;-69
2023/10/23 05:51:24;;;;;;;9.80;9.43;;;22.80;95.50;;;;;;5030275;28;20505;-68
2023/10/23 05:53:52;;;;;;;8.43;8.23;;;22.80;95.40;;;;;;5022789;28;20950;-69
2023/10/23 05:56:19;;;;;;;8.80;8.50;;;22.70;95.20;;;;;;5022063;28;20494;-68
2023/10/23 05:58:47;;;;;;;8.97;8.57;;;22.80;95.20;;;;;;5026164;28;20953;-69
2023/10/23 06:01:14;;;;;;;8.77;8.47;;;22.80;95.30;;;;;;5023288;28;20542;-69
2023/10/23 06:03:41;;;;;;;8.70;8.40;;;22.80;95.30;;;;;;5022478;28;20524;-69
2023/10/23 06:06:12;;;;;;;8.73;8.40;;;22.80;95.00;;;;;;5022225;28;20504;-63
2023/10/23 06:08:41;;;;;;;12.63;12.07;;;22.80;94.80;;;;;;5022172;28;20447;-68
2023/10/23 06:11:13;;;;;;;14.90;14.40;;;22.80;95.00;;;;;;5017232;28;20227;-67
2023/10/23 06:13:44;;;;;;;14.03;13.43;;;22.90;94.70;;;;;;5024609;28;20468;-67
2023/10/23 06:16:12;;;;;;;11.85;11.23;;;22.90;94.60;;;;;;5023158;28;20474;-68
2023/10/23 06:18:42;;;;;;;13.17;12.67;;;23.00;94.60;;;;;;5021366;28;20229;-70
2023/10/23 06:21:13;;;;;;;10.70;10.20;;;22.90;94.70;;;;;;5022523;28;20485;-70
2023/10/23 06:23:43;;;;;;;13.32;12.82;;;22.90;94.80;;;;;;5024826;28;20549;-70
2023/10/23 06:26:16;;;;;;;10.02;9.73;;;22.90;94.80;;;;;;5022698;28;20540;-70
2023/10/23 06:28:43;;;;;;;11.77;11.37;;;22.90;94.70;;;;;;5021938;28;20307;-70
2023/10/23 06:31:11;;;;;;;12.13;11.60;;;23.00;94.80;;;;;;5023716;28;20450;-70
2023/10/23 06:33:42;;;;;;;12.17;11.80;;;23.00;94.50;;;;;;5024682;28;20995;-70
2023/10/23 06:36:09;;;;;;;12.40;12.00;;;23.10;94.60;;;;;;5015322;28;20572;-66
2023/10/23 06:38:36;;;;;;;11.23;10.90;;;23.00;94.30;;;;;;5014037;28;20484;-66
2023/10/23 06:41:04;;;;;;;11.40;10.90;;;23.00;94.50;;;;;;5023778;28;20487;-66
2023/10/23 06:43:32;;;;;;;12.07;11.57;;;23.00;94.10;;;;;;5022807;28;20457;-70
2023/10/23 06:46:01;;;;;;;11.20;10.80;;;23.00;94.10;;;;;;5021927;28;20524;-70
2023/10/23 06:48:29;;;;;;;10.60;10.30;;;23.00;95.20;;;;;;5020870;28;20458;-69
2023/10/23 06:50:56;;;;;;;10.37;10.07;;;23.00;95.00;;;;;;5021101;28;20482;-68
2023/10/23 06:53:24;;;;;;;10.87;10.57;;;22.90;95.20;;;;;;5019019;28;20488;-69
2023/10/23 06:55:52;;;;;;;10.10;9.70;;;23.00;94.60;;;;;;5017064;28;20513;-69
2023/10/23 06:58:21;;;;;;;11.20;10.80;;;23.00;94.70;;;;;;5022527;28;20846;-69
2023/10/23 07:00:50;;;;;;;11.27;10.97;;;22.90;95.20;;;;;;5010866;28;20454;-70
2023/10/23 07:03:19;;;;;;;10.80;10.50;;;23.00;94.80;;;;;;5022525;28;20453;-70
2023/10/23 07:05:47;;;;;;;11.60;10.80;;;23.00;94.60;;;;;;5024361;28;20477;-68
2023/10/23 07:08:16;;;;;;;11.07;10.67;;;22.90;94.60;;;;;;5021187;28;20457;-64
2023/10/23 07:10:43;;;;;;;11.63;11.30;;;23.00;94.80;;;;;;5021010;28;20477;-67
2023/10/23 07:13:11;;;;;;;12.27;11.77;;;23.00;94.70;;;;;;5021113;28;20822;-67
2023/10/23 07:15:42;;;;;;;12.33;11.90;;;23.00;94.90;;;;;;5021609;28;20462;-69
2023/10/23 07:18:12;;;;;;;12.37;12.00;;;23.20;95.10;;;;;;5022723;28;20531;-69
2023/10/23 07:20:43;;;;;;;12.20;11.80;;;23.20;95.00;;;;;;5024835;28;20472;-70
2023/10/23 07:23:12;;;;;;;11.73;11.33;;;23.20;94.70;;;;;;5021973;28;20449;-68
2023/10/23 07:25:39;;;;;;;12.17;11.77;;;23.30;94.80;;;;;;5021188;28;20568;-68
2023/10/23 07:28:08;;;;;;;10.70;10.40;;;23.40;94.70;;;;;;5021447;28;20482;-69
2023/10/23 07:30:47;;;;;;;10.87;10.57;;;23.40;94.60;;;;;;5024999;28;20479;-71
2023/10/23 07:33:16;;;;;;;10.77;10.43;;;23.50;94.30;;;;;;5012549;28;20450;-67
2023/10/23 07:35:44;;;;;;;11.40;11.10;;;23.50;93.90;;;;;;5018882;28;20552;-72
2023/10/23 07:38:15;;;;;;;11.27;10.97;;;23.50;93.90;;;;;;5010703;28;20972;-72
2023/10/23 07:40:47;;;;;;;10.60;10.40;;;23.50;94.00;;;;;;5024976;28;20948;-69
2023/10/23 07:43:25;;;;;;;11.23;10.90;;;23.60;94.00;;;;;;5017854;28;20499;-71
2023/10/23 07:45:55;;;;;;;11.60;11.10;;;23.60;93.90;;;;;;5016037;28;20486;-71
2023/10/23 07:48:28;;;;;;;11.43;11.03;;;23.60;93.60;;;;;;5024037;28;20461;-73
2023/10/23 07:51:03;;;;;;;11.03;10.73;;;23.60;93.40;;;;;;5023696;28;20444;-71
2023/10/23 07:53:31;;;;;;;11.93;11.57;;;23.60;93.20;;;;;;5013968;28;20511;-68
2023/10/23 07:55:59;;;;;;;12.33;12.03;;;23.60;93.40;;;;;;5023804;28;20464;-70
2023/10/23 07:58:29;;;;;;;12.50;12.10;;;23.70;93.30;;;;;;5012543;28;20442;-71
2023/10/23 08:01:04;;;;;;;12.93;12.53;;;23.70;93.10;;;;;;5018046;28;20486;-69
2023/10/23 08:03:33;;;;;;;11.93;11.63;;;23.70;93.10;;;;;;5007747;28;20455;-66
2023/10/23 08:06:00;;;;;;;12.40;11.90;;;23.70;92.80;;;;;;5023271;28;20477;-71
2023/10/23 08:08:27;;;;;;;13.20;12.70;;;23.80;92.80;;;;;;5020650;28;20531;-68
2023/10/23 08:10:54;;;;;;;13.10;12.70;;;23.80;92.50;;;;;;5019982;28;20489;-70
2023/10/23 08:13:21;;;;;;;13.23;12.70;;;23.80;92.30;;;;;;5023931;28;20953;-72
2023/10/23 08:15:49;;;;;;;13.07;12.77;;;23.80;92.80;;;;;;5024115;28;20877;-66
2023/10/23 08:18:16;;;;;;;13.53;13.10;;;23.80;92.60;;;;;;5021527;28;20472;-69
2023/10/23 08:20:44;;;;;;;12.47;12.17;;;23.80;92.60;;;;;;5020032;28;20480;-71
2023/10/23 08:23:11;;;;;;;13.10;12.63;;;23.80;92.90;;;;;;5021965;28;20474;-74
2023/10/23 08:25:38;;;;;;;12.00;11.70;;;23.80;93.00;;;;;;5023810;28;20513;-70
2023/10/23 08:28:05;;;;;;;12.27;11.97;;;23.90;92.90;;;;;;5022934;28;20473;-70
2023/10/23 08:30:33;;;;;;;11.70;11.40;;;23.90;92.80;;;;;;5020419;28;20500;-67
2023/10/23 08:33:00;;;;;;;12.33;11.93;;;23.80;92.90;;;;;;5019873;28;20512;-70
2023/10/23 08:35:28;;;;;;;15.60;14.90;;;23.90;93.10;;;;;;5017439;28;20485;-70
2023/10/23 08:37:56;;;;;;;14.57;14.17;;;23.90;93.50;;;;;;5020387;28;20442;-69
2023/10/23 08:40:24;;;;;;;15.30;14.90;;;23.90;93.40;;;;;;5023521;28;20437;-71
2023/10/23 08:42:51;;;;;;;16.00;15.50;;;23.90;93.40;;;;;;5021524;28;20469;-70
2023/10/23 08:45:17;;;;;;;16.40;15.90;;;23.90;93.30;;;;;;5046898;22;20515;-69
2023/10/23 08:47:44;;;;;;;16.13;15.63;;;23.90;93.30;;;;;;5051922;28;20453;-69
2023/10/23 08:50:11;;;;;;;16.40;15.90;;;23.90;93.40;;;;;;5051989;28;20472;-68
2023/10/23 08:52:44;;;;;;;16.23;15.73;;;23.90;93.20;;;;;;5043660;28;20480;-65
2023/10/23 08:55:13;;;;;;;16.37;15.97;;;23.90;92.90;;;;;;5051018;28;20460;-66
2023/10/23 08:57:45;;;;;;;15.63;15.13;;;24.00;92.60;;;;;;5051129;28;20440;-66
2023/10/23 09:00:13;;;;;;;16.93;16.20;;;24.00;92.40;;;;;;5050949;28;20482;-65
2023/10/23 09:02:40;;;;;;;17.03;16.30;;;24.00;92.50;;;;;;5050831;28;20535;-64
2023/10/23 09:05:07;;;;;;;16.30;15.70;;;24.00;92.80;;;;;;5050912;28;20511;-66
2023/10/23 09:07:34;;;;;;;17.67;16.57;;;24.00;92.60;;;;;;5050976;28;20472;-66
2023/10/23 09:10:03;;;;;;;16.63;15.50;;;24.10;92.70;;;;;;5050778;28;20578;-65
2023/10/23 09:12:33;;;;;;;16.70;15.53;;;24.10;92.80;;;;;;5043148;28;20440;-64
2023/10/23 09:15:12;;;;;;;19.47;18.20;;;24.10;92.70;;;;;;5051065;28;20506;-72
2023/10/23 09:17:39;;;;;;;22.43;18.80;;;24.10;95.00;;;;;;5045030;28;20891;-72
2023/10/23 09:20:21;;;;;;;19.07;17.70;;;24.10;97.00;;;;;;5051765;28;21072;-72
2023/10/23 09:22:48;;;;;;;20.73;18.63;;;24.10;97.50;;;;;;5052218;28;20786;-75
2023/10/23 09:25:15;;;;;;;19.07;17.37;;;24.10;97.10;;;;;;5051744;28;21014;-73
2023/10/23 09:27:43;;;;;;;21.70;19.90;;;24.10;97.40;;;;;;5051578;28;20442;-70
2023/10/23 09:30:13;;;;;;;20.70;18.63;;;24.10;97.60;;;;;;5053068;28;20474;-75
2023/10/23 09:32:40;;;;;;;18.13;16.53;;;24.10;97.80;;;;;;5055188;28;20552;-75
2023/10/23 09:35:09;;;;;;;19.37;17.50;;;24.10;97.80;;;;;;5055497;28;20492;-75
2023/10/23 09:37:36;;;;;;;19.13;17.73;;;24.10;97.90;;;;;;5055056;28;20963;-73
2023/10/23 09:40:12;;;;;;;21.00;17.70;;;24.10;98.10;;;;;;5054592;28;20523;-71
2023/10/23 09:42:56;;;;;;;19.53;18.20;;;24.10;98.10;;;;;;5054489;28;20436;-65
2023/10/23 09:45:26;;;;;;;18.03;16.47;;;24.20;97.20;;;;;;5053828;28;20484;-64
2023/10/23 09:47:58;;;;;;;18.57;17.17;;;24.20;97.20;;;;;;5053757;28;20474;-64
2023/10/23 09:50:27;;;;;;;18.53;17.17;;;24.20;97.50;;;;;;5054122;28;20490;-64
2023/10/23 09:52:57;;;;;;;18.80;17.30;;;24.20;97.60;;;;;;5053853;28;20487;-65
2023/10/23 09:55:28;;;;;;;18.60;17.57;;;24.20;97.50;;;;;;5054999;28;20479;-71
2023/10/23 09:57:59;;;;;;;18.50;17.00;;;24.20;97.40;;;;;;5054832;28;20463;-69
2023/10/23 10:00:27;;;;;;;18.60;17.20;;;24.20;97.70;;;;;;5055209;28;20471;-64
2023/10/23 10:02:55;;;;;;;18.73;17.23;;;24.20;97.80;;;;;;5055044;28;20445;-70
2023/10/23 10:05:26;;;;;;;18.87;17.27;;;24.20;97.60;;;;;;5053938;28;20507;-69
2023/10/23 10:08:10;;;;;;;18.13;17.10;;;24.20;98.20;;;;;;5053918;28;20951;-68
2023/10/23 10:10:40;;;;;;;20.03;18.60;;;24.30;98.20;;;;;;5047775;28;20448;-70
2023/10/23 10:13:11;;;;;;;18.67;17.37;;;24.20;98.00;;;;;;5054462;28;20444;-69
2023/10/23 10:15:39;;;;;;;19.30;18.07;;;24.20;98.10;;;;;;5053811;28;20545;-71
2023/10/23 10:18:06;;;;;;;19.47;18.20;;;24.30;98.20;;;;;;5055206;28;20468;-73
2023/10/23 10:20:34;;;;;;;18.60;17.30;;;24.30;98.30;;;;;;5055303;28;20948;-72
2023/10/23 10:23:08;;;;;;;18.70;17.43;;;24.30;98.20;;;;;;5055146;28;20476;-72
2023/10/23 10:25:37;;;;;;;18.20;16.83;;;24.30;98.20;;;;;;5047164;28;20530;-70
2023/10/23 10:28:06;;;;;;;17.40;16.23;;;24.30;98.10;;;;;;5054564;28;20445;-71
2023/10/23 10:30:42;;;;;;;18.03;16.43;;;24.30;98.30;;;;;;5046914;28;20487;-69
2023/10/23 10:33:10;;;;;;;19.37;17.77;;;24.30;98.10;;;;;;5053621;28;20566;-71
2023/10/23 10:35:37;;;;;;;18.90;17.40;;;24.30;98.20;;;;;;5053557;28;20491;-70
2023/10/23 10:38:04;;;;;;;16.60;15.80;;;24.30;97.70;;;;;;5053437;28;20471;-70
2023/10/23 10:40:56;;;;;;;17.40;16.50;;;24.30;97.80;;;;;;5049479;28;20534;-71
2023/10/23 10:43:25;;;;;;;17.37;16.47;;;24.30;97.50;;;;;;5052274;28;20543;-69
2023/10/23 10:45:56;;;;;;;18.07;17.23;;;24.30;97.40;;;;;;5053623;28;20491;-69
2023/10/23 10:48:25;;;;;;;18.13;17.33;;;24.30;97.20;;;;;;5053220;28;20440;-68
2023/10/23 10:50:55;;;;;;;17.93;16.97;;;24.30;96.90;;;;;;5052309;28;20452;-64
2023/10/23 10:53:27;;;;;;;17.00;16.37;;;24.30;96.70;;;;;;5053130;28;20816;-65
2023/10/23 10:55:57;;;;;;;17.10;16.10;;;24.40;96.60;;;;;;5052995;28;20586;-65
2023/10/23 10:58:26;;;;;;;18.83;17.47;;;24.40;96.70;;;;;;5052919;28;20475;-65
2023/10/23 11:00:58;;;;;;;19.97;18.07;;;24.40;96.80;;;;;;5053152;28;20468;-68
2023/10/23 11:03:34;;;;;;;18.57;17.67;;;24.40;97.10;;;;;;5052856;28;20514;-69
2023/10/23 11:06:02;;;;;;;17.40;16.50;;;24.40;97.00;;;;;;5051546;28;20479;-64
2023/10/23 11:08:34;;;;;;;18.33;17.20;;;24.40;96.60;;;;;;5052532;28;20441;-65
2023/10/23 11:11:16;;;;;;;18.20;17.27;;;24.40;96.40;;;;;;5052457;28;20971;-68
2023/10/23 11:13:44;;;;;;;17.90;17.00;;;24.40;97.00;;;;;;5051294;28;20509;-68
2023/10/23 11:16:15;;;;;;;16.20;15.60;;;24.40;97.70;;;;;;5052175;28;20484;-68
2023/10/23 11:18:43;;;;;;;16.30;15.70;;;24.40;97.90;;;;;;5052222;28;20487;-68
2023/10/23 11:21:16;;;;;;;15.80;15.13;;;24.40;97.40;;;;;;5052193;28;21133;-68
2023/10/23 11:23:45;;;;;;;16.83;16.03;;;24.40;97.30;;;;;;5052342;28;20445;-67
2023/10/23 11:26:13;;;;;;;17.33;16.40;;;24.40;97.30;;;;;;5049447;28;20511;-68
2023/10/23 11:31:26;;;;;;;16.83;15.83;;;24.50;97.00;;;;;;5051431;28;20816;-67
2023/10/23 11:33:58;;;;;;;16.47;15.80;;;24.50;97.00;;;;;;5052006;28;20472;-65
2023/10/23 11:36:39;;;;;;;17.63;16.33;;;24.50;96.70;;;;;;5050883;28;20424;-70
2023/10/23 11:39:15;;;;;;;18.53;17.73;;;24.50;96.10;;;;;;5050107;28;20443;-69
2023/10/23 11:41:53;;;;;;;18.03;17.30;;;24.50;96.10;;;;;;5047933;28;20501;-68
2023/10/23 11:44:22;;;;;;;18.47;17.63;;;24.50;95.70;;;;;;5052322;28;20439;-66
2023/10/23 11:46:55;;;;;;;15.35;14.45;;;24.60;95.60;;;;;;5050181;28;20456;-69
2023/10/23 11:49:25;;;;;;;16.43;15.63;;;24.50;96.30;;;;;;5051724;28;20205;-69
2023/10/23 11:52:01;;;;;;;16.27;15.60;;;24.60;96.70;;;;;;5052065;28;20448;-68
2023/10/23 11:54:32;;;;;;;16.13;15.50;;;24.60;96.80;;;;;;5052231;28;21005;-68
2023/10/23 11:57:03;;;;;;;16.33;14.77;;;24.60;96.60;;;;;;5052289;28;20436;-69
2023/10/23 11:59:30;;;;;;;16.30;15.70;;;24.60;96.40;;;;;;5052133;28;20835;-67
2023/10/23 12:02:01;;;;;;;15.90;15.20;;;24.60;96.50;;;;;;5052550;28;20464;-64
2023/10/23 12:04:35;;;;;;;15.47;14.80;;;24.60;96.10;;;;;;5051631;28;20528;-65
2023/10/23 12:07:04;;;;;;;17.60;16.50;;;24.50;93.80;;;;;;5051298;28;20559;-64
2023/10/23 12:09:32;;;;;;;15.63;15.03;;;24.40;93.40;;;;;;5051470;28;20444;-71
2023/10/23 12:11:59;;;;;;;16.60;15.90;;;24.40;94.80;;;;;;5052875;28;20460;-70
2023/10/23 12:14:33;;;;;;;15.60;14.80;;;24.30;95.30;;;;;;5053352;28;20467;-69
2023/10/23 12:17:04;;;;;;;14.80;14.23;;;24.30;96.20;;;;;;5053013;28;20468;-66
2023/10/23 12:19:33;;;;;;;15.80;15.30;;;24.30;96.20;;;;;;5052983;28;20823;-66
2023/10/23 12:22:01;;;;;;;16.33;15.63;;;24.30;96.20;;;;;;5052415;28;20488;-70
2023/10/23 12:24:28;;;;;;;15.60;14.88;;;24.30;96.50;;;;;;5051806;28;20498;-69
2023/10/23 12:26:56;;;;;;;17.60;16.80;;;24.20;98.30;;;;;;5051842;28;20280;-68
2023/10/23 12:29:26;;;;;;;15.43;14.63;;;24.20;96.50;;;;;;5051318;28;20446;-68
2023/10/23 12:31:56;;;;;;;14.68;14.07;;;24.20;96.50;;;;;;5052317;28;20490;-73
2023/10/23 12:34:31;;;;;;;16.30;15.57;;;24.30;96.60;;;;;;5053116;28;20229;-68
2023/10/23 12:37:07;;;;;;;16.70;16.00;;;24.30;96.20;;;;;;5052522;28;20446;-68
2023/10/23 12:39:34;;;;;;;16.60;15.97;;;24.30;96.20;;;;;;5050555;28;20447;-68
2023/10/23 12:42:08;;;;;;;16.70;16.10;;;24.30;96.20;;;;;;5051577;28;20444;-68
2023/10/23 12:44:35;;;;;;;17.80;16.90;;;24.20;96.30;;;;;;5051213;28;20476;-68